Time;durP1;ratioP1;P1;durP2;ratioP2;P2;SDS_P1;SDS_P2;PMS_P1;PMS_P2;Temp;Humidity;BMP_temperature;BMP_pressure;BME280_temperature;BME280_humidity;BME280_pressure;Samples;Min_cycle;Max_cycle;Signal;HPM_P1;HPM_P2
2022/08/18 00:00:28;;;;;;;6.85;6.35;;;23.40;76.80;;;;;;636940;226;26806;-68
2022/08/18 00:02:56;;;;;;;7.10;6.43;;;23.40;76.50;;;;;;637106;226;26522;-68
2022/08/18 00:05:23;;;;;;;6.97;6.47;;;23.30;76.40;;;;;;636600;226;26606;-68
2022/08/18 00:07:51;;;;;;;6.87;6.20;;;23.30;76.50;;;;;;637100;226;26545;-68
2022/08/18 00:10:19;;;;;;;7.37;6.78;;;23.30;76.40;;;;;;637115;225;26525;-68
2022/08/18 00:12:46;;;;;;;8.13;7.05;;;23.30;76.40;;;;;;637088;226;26557;-68
2022/08/18 00:15:14;;;;;;;7.97;7.03;;;23.30;77.70;;;;;;636737;226;26568;-68
2022/08/18 00:17:41;;;;;;;7.03;6.45;;;23.30;77.70;;;;;;636774;226;26540;-68
2022/08/18 00:20:09;;;;;;;8.02;7.32;;;23.30;76.60;;;;;;636714;226;26540;-68
2022/08/18 00:22:38;;;;;;;7.53;6.82;;;23.30;76.90;;;;;;636915;226;26584;-68
2022/08/18 00:25:04;;;;;;;7.50;6.80;;;23.30;76.80;;;;;;637018;226;26768;-68
2022/08/18 00:27:31;;;;;;;7.03;6.45;;;23.30;76.40;;;;;;637156;226;26800;-68
2022/08/18 00:29:59;;;;;;;7.05;6.32;;;23.20;77.60;;;;;;637106;226;26504;-68
2022/08/18 00:32:27;;;;;;;7.53;6.78;;;23.20;77.10;;;;;;637032;226;26770;-68
2022/08/18 00:34:54;;;;;;;6.70;6.20;;;23.20;77.40;;;;;;637062;226;26521;-68
2022/08/18 00:37:22;;;;;;;6.87;6.32;;;23.20;77.60;;;;;;637135;226;26516;-68
2022/08/18 00:39:50;;;;;;;7.35;6.75;;;23.20;77.60;;;;;;637128;226;26505;-68
2022/08/18 00:42:18;;;;;;;7.30;6.65;;;23.20;77.30;;;;;;636702;226;26524;-68
2022/08/18 00:44:45;;;;;;;7.12;6.53;;;23.10;77.30;;;;;;636698;226;27220;-68
2022/08/18 00:47:13;;;;;;;6.72;6.22;;;23.10;77.50;;;;;;636703;226;26537;-68
2022/08/18 00:49:40;;;;;;;6.20;5.68;;;23.10;77.40;;;;;;637733;223;26596;-71
2022/08/18 00:52:07;;;;;;;7.60;6.87;;;23.00;77.40;;;;;;638072;225;26766;-68
2022/08/18 00:54:34;;;;;;;11.98;7.60;;;23.00;77.40;;;;;;637511;225;26621;-68
2022/08/18 00:57:01;;;;;;;8.38;6.85;;;23.00;78.10;;;;;;637471;225;26815;-68
2022/08/18 00:59:48;;;;;;;7.28;6.55;;;23.00;77.40;;;;;;637022;225;26549;-68
2022/08/18 01:02:17;;;;;;;7.40;6.70;;;23.00;77.50;;;;;;636014;226;26552;-67
2022/08/18 01:04:44;;;;;;;8.90;6.50;;;22.90;77.40;;;;;;636983;226;27441;-67
2022/08/18 01:07:28;;;;;;;7.05;6.35;;;22.90;77.80;;;;;;636907;226;26528;-67
2022/08/18 01:09:54;;;;;;;7.03;6.37;;;22.90;77.80;;;;;;636554;226;26571;-67
2022/08/18 01:12:22;;;;;;;6.80;6.20;;;22.80;77.70;;;;;;636954;226;26567;-67
2022/08/18 01:14:49;;;;;;;7.10;6.43;;;22.80;78.20;;;;;;637069;225;26567;-67
2022/08/18 01:22:23;;;;;;;7.03;6.32;;;22.70;78.30;;;;;;637043;226;26779;-67
2022/08/18 01:27:25;;;;;;;7.15;6.28;;;22.70;78.30;;;;;;636766;226;26497;-66
2022/08/18 01:29:53;;;;;;;6.50;5.93;;;22.60;78.20;;;;;;636611;226;26545;-66
2022/08/18 01:32:19;;;;;;;7.57;6.80;;;22.60;78.70;;;;;;636730;226;26541;-66
2022/08/18 01:34:47;;;;;;;6.37;5.87;;;22.60;79.00;;;;;;636686;226;26753;-66
2022/08/18 01:37:14;;;;;;;6.82;6.22;;;22.60;78.70;;;;;;636682;226;26553;-66
2022/08/18 01:39:41;;;;;;;6.82;6.32;;;22.60;78.90;;;;;;636671;226;26765;-66
2022/08/18 01:42:08;;;;;;;7.00;6.35;;;22.60;78.60;;;;;;636583;226;26521;-66
2022/08/18 01:44:35;;;;;;;7.32;6.62;;;22.70;78.40;;;;;;636781;226;27205;-66
2022/08/18 01:47:03;;;;;;;6.78;6.28;;;22.70;78.40;;;;;;636700;226;26529;-66
2022/08/18 01:49:30;;;;;;;7.62;6.72;;;22.70;77.70;;;;;;637010;226;26568;-66
2022/08/18 01:51:57;;;;;;;6.30;5.90;;;22.80;77.50;;;;;;637119;225;26829;-66
2022/08/18 01:54:28;;;;;;;6.72;6.20;;;22.80;77.20;;;;;;637122;226;26545;-66
2022/08/18 01:56:52;;;;;;;7.28;6.12;;;22.80;76.70;;;;;;636788;226;26519;-66
2022/08/18 01:59:19;;;;;;;6.82;6.32;;;22.90;76.50;;;;;;637021;226;26505;-66
2022/08/18 02:01:46;;;;;;;8.15;6.45;;;22.90;76.40;;;;;;638502;223;26561;-66
2022/08/18 02:04:14;;;;;;;7.18;6.47;;;22.90;76.10;;;;;;638088;225;26552;-68
2022/08/18 02:06:42;;;;;;;7.22;6.30;;;22.80;75.90;;;;;;637716;225;26603;-67
2022/08/18 02:09:09;;;;;;;6.65;6.05;;;22.80;75.90;;;;;;637644;225;26806;-69
2022/08/18 02:11:36;;;;;;;8.05;6.53;;;22.80;76.10;;;;;;637316;225;26517;-69
2022/08/18 02:14:04;;;;;;;9.32;7.10;;;22.70;76.00;;;;;;637339;226;26809;-69
2022/08/18 02:16:32;;;;;;;7.00;6.40;;;22.80;76.00;;;;;;637366;225;26605;-68
2022/08/18 02:18:58;;;;;;;6.45;5.95;;;22.70;76.10;;;;;;637146;226;26794;-69
2022/08/18 02:21:25;;;;;;;6.82;6.22;;;22.70;76.20;;;;;;636955;226;26568;-68
2022/08/18 02:23:52;;;;;;;6.70;6.10;;;22.60;76.30;;;;;;637015;225;27218;-69
2022/08/18 02:26:20;;;;;;;7.40;6.75;;;22.60;76.60;;;;;;637023;224;26545;-68
2022/08/18 02:28:47;;;;;;;6.30;5.70;;;22.50;76.40;;;;;;636995;226;26586;-69
2022/08/18 02:31:15;;;;;;;6.72;6.18;;;22.50;76.60;;;;;;637020;226;26519;-69
2022/08/18 02:33:43;;;;;;;7.00;6.40;;;22.50;76.50;;;;;;637015;226;26569;-69
2022/08/18 02:36:11;;;;;;;7.00;6.40;;;22.50;76.70;;;;;;637012;226;26795;-69
2022/08/18 02:38:38;;;;;;;6.62;6.05;;;22.50;76.80;;;;;;636587;222;26545;-69
2022/08/18 02:41:08;;;;;;;6.85;6.10;;;22.50;77.00;;;;;;636749;226;26776;-69
2022/08/18 02:43:33;;;;;;;6.72;6.22;;;22.40;76.90;;;;;;636984;226;26573;-69
2022/08/18 02:46:00;;;;;;;7.50;6.53;;;22.40;77.00;;;;;;637122;225;26799;-69
2022/08/18 02:48:33;;;;;;;6.78;6.10;;;22.40;77.00;;;;;;636721;226;26576;-69
2022/08/18 02:51:07;;;;;;;7.20;6.60;;;22.40;77.00;;;;;;636656;226;26545;-69
2022/08/18 02:53:33;;;;;;;6.95;6.40;;;22.40;77.00;;;;;;636688;226;26802;-69
2022/08/18 02:56:16;;;;;;;11.43;6.65;;;22.40;77.10;;;;;;636761;226;26568;-69
2022/08/18 02:58:35;;;;;;;7.68;6.87;;;22.40;77.00;;;;;;635129;226;26807;-69
2022/08/18 03:01:02;;;;;;;7.37;6.62;;;22.30;77.10;;;;;;636707;226;26525;-68
2022/08/18 03:03:31;;;;;;;6.87;6.20;;;22.30;77.40;;;;;;636752;222;26558;-69
2022/08/18 03:05:58;;;;;;;7.60;6.80;;;22.20;77.60;;;;;;636625;222;26541;-69
2022/08/18 03:08:25;;;;;;;7.75;6.97;;;22.20;77.90;;;;;;636745;225;26510;-69
2022/08/18 03:10:53;;;;;;;7.45;6.80;;;22.20;77.90;;;;;;636685;226;26546;-69
2022/08/18 03:13:21;;;;;;;7.57;6.87;;;22.10;77.70;;;;;;638095;221;26600;-68
2022/08/18 03:15:49;;;;;;;7.07;6.05;;;22.10;77.80;;;;;;638054;224;26532;-70
2022/08/18 03:18:16;;;;;;;7.10;6.05;;;22.10;78.10;;;;;;637714;225;26604;-70
2022/08/18 03:20:44;;;;;;;7.22;6.62;;;22.10;78.50;;;;;;637545;225;26799;-69
2022/08/18 03:23:10;;;;;;;7.07;6.37;;;22.00;78.50;;;;;;637311;225;26609;-69
2022/08/18 03:25:45;;;;;;;7.40;6.70;;;22.00;79.10;;;;;;637208;226;26778;-69
2022/08/18 03:28:12;;;;;;;7.62;6.95;;;21.90;78.80;;;;;;637362;226;26537;-69
2022/08/18 03:30:39;;;;;;;6.85;6.15;;;21.90;79.40;;;;;;637020;226;26583;-69
2022/08/18 03:33:06;;;;;;;7.50;6.80;;;21.90;80.10;;;;;;637106;225;26543;-69
2022/08/18 03:35:34;;;;;;;6.90;6.30;;;21.90;79.50;;;;;;637020;226;26916;-70
2022/08/18 03:38:02;;;;;;;7.55;6.65;;;21.90;79.60;;;;;;636934;226;26537;-69
2022/08/18 03:40:29;;;;;;;7.28;6.57;;;21.80;79.50;;;;;;637085;226;26814;-69
2022/08/18 03:42:56;;;;;;;7.47;6.80;;;21.80;80.00;;;;;;637067;225;26563;-70
2022/08/18 03:45:26;;;;;;;7.22;6.62;;;21.80;80.30;;;;;;636995;226;26839;-69
2022/08/18 03:47:51;;;;;;;7.90;5.97;;;21.70;80.70;;;;;;636799;226;26541;-69
2022/08/18 03:50:18;;;;;;;7.20;6.47;;;21.70;80.80;;;;;;636649;226;26775;-69
2022/08/18 03:52:47;;;;;;;8.60;6.15;;;21.70;81.10;;;;;;636572;226;26536;-70
2022/08/18 03:55:14;;;;;;;7.82;7.12;;;21.70;81.10;;;;;;636603;226;26777;-69
2022/08/18 03:57:42;;;;;;;7.93;7.22;;;21.70;81.30;;;;;;636561;226;26528;-69
2022/08/18 04:00:10;;;;;;;7.22;6.62;;;21.70;80.90;;;;;;636659;226;26541;-70
2022/08/18 04:02:37;;;;;;;7.43;6.68;;;21.70;80.90;;;;;;636576;226;26540;-70
2022/08/18 04:05:05;;;;;;;7.32;6.72;;;21.70;81.20;;;;;;636529;226;26811;-70
2022/08/18 04:07:33;;;;;;;7.45;6.85;;;21.70;81.20;;;;;;636726;226;26544;-70
2022/08/18 04:10:01;;;;;;;7.30;6.65;;;21.70;81.70;;;;;;636697;226;26784;-70
2022/08/18 04:12:29;;;;;;;7.20;6.60;;;21.70;81.80;;;;;;636679;226;26509;-70
2022/08/18 04:14:57;;;;;;;8.55;6.60;;;21.80;81.90;;;;;;636767;226;26563;-70
2022/08/18 04:17:25;;;;;;;7.00;6.18;;;21.80;81.50;;;;;;636754;225;26554;-70
2022/08/18 04:19:53;;;;;;;8.15;7.30;;;21.90;81.40;;;;;;636694;226;26544;-70
2022/08/18 04:22:21;;;;;;;8.00;7.20;;;21.90;81.50;;;;;;636578;226;26525;-69
2022/08/18 04:24:49;;;;;;;7.70;7.03;;;21.90;81.50;;;;;;637883;223;26585;-69
2022/08/18 04:27:15;;;;;;;9.25;7.32;;;21.90;81.10;;;;;;638073;225;26541;-69
2022/08/18 04:29:42;;;;;;;8.23;7.53;;;22.00;81.10;;;;;;637753;225;26793;-70
2022/08/18 04:32:09;;;;;;;7.80;7.10;;;22.00;81.00;;;;;;637654;225;26598;-70
2022/08/18 04:34:36;;;;;;;7.57;6.78;;;22.00;81.00;;;;;;637384;225;26802;-70
2022/08/18 04:37:04;;;;;;;7.95;7.25;;;22.00;80.90;;;;;;637371;226;26530;-70
2022/08/18 04:39:31;;;;;;;7.55;6.85;;;22.10;80.90;;;;;;637357;226;27217;-69
2022/08/18 04:41:58;;;;;;;6.87;6.37;;;22.10;80.80;;;;;;637249;225;26553;-69
2022/08/18 04:44:25;;;;;;;7.57;6.87;;;22.10;80.70;;;;;;637005;225;26833;-69
2022/08/18 04:46:53;;;;;;;7.90;7.20;;;22.20;80.40;;;;;;637001;226;26583;-69
2022/08/18 04:49:20;;;;;;;7.60;6.75;;;22.30;80.20;;;;;;636956;226;27027;-69
2022/08/18 04:53:43;;;;;;;7.10;6.50;;;22.40;79.80;;;;;;636883;226;26586;-69
2022/08/18 04:54:16;;;;;;;7.82;7.10;;;22.50;79.60;;;;;;634829;226;26559;-69
2022/08/18 04:56:44;;;;;;;7.25;6.65;;;22.50;79.30;;;;;;636996;225;26603;-70
2022/08/18 04:59:11;;;;;;;8.10;7.30;;;22.50;79.30;;;;;;637057;226;27065;-69
2022/08/18 05:01:40;;;;;;;7.68;6.87;;;22.70;78.70;;;;;;636690;226;26631;-70
2022/08/18 05:04:08;;;;;;;7.68;6.97;;;22.60;78.60;;;;;;636707;226;26560;-69
2022/08/18 05:06:36;;;;;;;8.00;7.20;;;22.80;78.20;;;;;;636609;226;26546;-69
2022/08/18 05:09:04;;;;;;;7.82;6.93;;;22.80;77.70;;;;;;636714;226;26549;-70
2022/08/18 05:11:33;;;;;;;8.43;6.97;;;22.80;77.70;;;;;;636598;226;26545;-69
2022/08/18 05:14:01;;;;;;;7.25;6.72;;;22.90;77.70;;;;;;636975;226;26537;-69
2022/08/18 05:16:28;;;;;;;8.20;7.47;;;22.90;77.70;;;;;;636806;226;27132;-69
2022/08/18 05:18:55;;;;;;;8.20;7.32;;;23.00;77.40;;;;;;636735;226;26524;-69
2022/08/18 05:21:24;;;;;;;7.87;7.07;;;23.00;77.40;;;;;;636580;226;26533;-69
2022/08/18 05:23:51;;;;;;;7.68;6.97;;;23.00;77.10;;;;;;636845;226;26556;-70
2022/08/18 05:26:19;;;;;;;8.02;7.30;;;23.00;77.10;;;;;;636824;225;26799;-70
2022/08/18 05:28:47;;;;;;;8.10;7.32;;;23.00;77.00;;;;;;636793;224;26532;-70
2022/08/18 05:31:15;;;;;;;7.68;7.05;;;23.10;76.50;;;;;;636707;226;26743;-70
2022/08/18 05:33:43;;;;;;;7.65;7.05;;;23.30;76.30;;;;;;636692;226;26548;-70
2022/08/18 05:36:30;;;;;;;6.57;6.05;;;23.40;75.80;;;;;;637866;223;26601;-70
2022/08/18 05:39:03;;;;;;;6.70;6.12;;;23.40;75.80;;;;;;633464;225;26602;-70
2022/08/18 05:41:32;;;;;;;6.37;5.82;;;23.50;75.20;;;;;;637182;225;26577;-70
2022/08/18 05:43:57;;;;;;;6.35;5.85;;;23.60;75.10;;;;;;637231;225;26936;-71
2022/08/18 05:46:25;;;;;;;9.48;6.57;;;23.60;75.00;;;;;;637412;226;26590;-71
2022/08/18 05:48:52;;;;;;;8.07;7.37;;;23.70;74.30;;;;;;636689;226;26811;-70
2022/08/18 05:51:36;;;;;;;7.80;7.05;;;23.70;74.00;;;;;;637274;226;26799;-70
2022/08/18 05:59:09;;;;;;;7.93;7.12;;;24.00;72.80;;;;;;637082;226;26593;-70
2022/08/18 06:01:40;;;;;;;7.80;7.03;;;24.10;72.90;;;;;;636946;226;26797;-69
2022/08/18 06:04:05;;;;;;;12.27;7.85;;;24.20;72.20;;;;;;636765;226;26800;-70
2022/08/18 06:06:32;;;;;;;11.80;8.13;;;24.30;72.30;;;;;;637072;226;26582;-69
2022/08/18 06:09:02;;;;;;;8.52;7.65;;;24.40;71.90;;;;;;637438;226;26527;-69
2022/08/18 06:11:30;;;;;;;7.90;7.10;;;24.60;71.20;;;;;;636618;226;26550;-70
2022/08/18 06:13:57;;;;;;;9.18;7.47;;;24.90;70.80;;;;;;636818;226;26758;-69
2022/08/18 06:16:45;;;;;;;8.45;7.65;;;25.10;70.00;;;;;;636893;226;26533;-69
2022/08/18 06:19:18;;;;;;;10.50;7.65;;;25.30;68.50;;;;;;635329;226;26549;-69
2022/08/18 06:21:53;;;;;;;8.25;7.47;;;25.40;67.70;;;;;;635996;226;26521;-69
2022/08/18 06:24:37;;;;;;;7.72;7.03;;;25.30;67.60;;;;;;636708;225;26571;-70
2022/08/18 06:27:39;;;;;;;8.50;7.70;;;25.40;67.00;;;;;;635264;226;26569;-69
2022/08/18 06:30:14;;;;;;;8.10;7.30;;;25.70;66.90;;;;;;633269;226;26597;-70
2022/08/18 06:32:58;;;;;;;7.65;7.05;;;25.70;66.80;;;;;;636782;226;26512;-70
2022/08/18 06:35:32;;;;;;;8.00;7.30;;;25.90;66.90;;;;;;636942;226;26562;-69
2022/08/18 06:41:02;;;;;;;6.75;6.25;;;26.10;65.20;;;;;;636710;226;26545;-69
2022/08/18 06:43:31;;;;;;;7.18;6.53;;;26.30;65.00;;;;;;636572;226;26577;-69
2022/08/18 06:45:56;;;;;;;7.40;6.68;;;26.40;64.60;;;;;;636506;226;27179;-70
2022/08/18 06:48:27;;;;;;;9.25;7.00;;;26.40;65.10;;;;;;638267;222;26602;-69
2022/08/18 06:50:53;;;;;;;7.85;7.07;;;26.40;63.60;;;;;;637283;225;26767;-69
2022/08/18 06:53:21;;;;;;;7.47;6.80;;;26.30;64.10;;;;;;637375;222;26575;-70
2022/08/18 06:55:48;;;;;;;7.10;6.30;;;26.30;64.30;;;;;;637572;225;27294;-69
2022/08/18 06:58:25;;;;;;;8.77;6.90;;;26.40;63.20;;;;;;628458;226;26524;-70
2022/08/18 07:00:56;;;;;;;7.87;7.00;;;26.40;62.60;;;;;;627481;226;26536;-70
2022/08/18 07:03:24;;;;;;;7.35;6.72;;;26.50;62.60;;;;;;628153;224;26956;-70
2022/08/18 07:05:55;;;;;;;7.25;6.10;;;26.60;62.90;;;;;;627658;225;26583;-70
2022/08/18 07:08:40;;;;;;;6.90;6.12;;;26.70;62.00;;;;;;613355;234;26813;-71
2022/08/18 07:11:30;;;;;;;9.18;7.07;;;26.80;62.00;;;;;;629089;225;26579;-70
2022/08/18 07:13:57;;;;;;;8.32;7.53;;;26.80;61.50;;;;;;629299;225;26811;-70
2022/08/18 07:16:30;;;;;;;7.55;6.90;;;26.90;61.50;;;;;;629724;225;26552;-71
2022/08/18 07:19:05;;;;;;;7.28;6.68;;;27.00;61.20;;;;;;617006;231;26592;-71
2022/08/18 07:21:33;;;;;;;14.65;7.32;;;27.10;61.30;;;;;;630461;225;26798;-70
2022/08/18 07:24:02;;;;;;;7.87;7.18;;;27.30;60.00;;;;;;626656;227;26593;-71
2022/08/18 07:26:30;;;;;;;8.38;7.53;;;27.40;59.70;;;;;;631385;225;26585;-70
2022/08/18 07:28:58;;;;;;;8.15;6.45;;;27.50;59.50;;;;;;610032;234;26600;-70
2022/08/18 07:31:38;;;;;;;7.18;6.47;;;27.50;59.70;;;;;;627811;226;26604;-70
2022/08/18 07:34:11;;;;;;;6.87;6.18;;;27.50;59.70;;;;;;631061;226;26596;-70
2022/08/18 07:36:40;;;;;;;8.88;7.28;;;27.60;59.90;;;;;;629600;225;26831;-70
2022/08/18 07:39:05;;;;;;;7.68;6.78;;;27.60;59.70;;;;;;626457;226;26593;-70
2022/08/18 07:41:36;;;;;;;7.25;6.55;;;27.70;60.00;;;;;;627272;227;26593;-70
2022/08/18 07:44:05;;;;;;;9.57;7.05;;;27.80;59.90;;;;;;629691;226;26571;-70
2022/08/18 07:46:44;;;;;;;9.82;7.25;;;27.80;59.90;;;;;;628941;225;26824;-70
2022/08/18 07:49:11;;;;;;;8.40;6.95;;;27.80;59.90;;;;;;611608;234;26613;-70
2022/08/18 07:51:44;;;;;;;8.00;7.07;;;27.90;59.50;;;;;;611717;234;26791;-70
2022/08/18 07:54:39;;;;;;;8.82;7.70;;;28.10;59.10;;;;;;605476;234;26816;-70
2022/08/18 07:57:12;;;;;;;7.12;6.47;;;28.10;58.50;;;;;;626882;225;26787;-70
2022/08/18 07:59:57;;;;;;;7.62;7.00;;;28.10;58.50;;;;;;627096;226;26609;-69
2022/08/18 08:02:28;;;;;;;7.40;6.70;;;28.20;57.90;;;;;;610517;229;26867;-69
2022/08/18 08:05:03;;;;;;;9.00;7.80;;;28.30;57.80;;;;;;626072;230;26560;-71
2022/08/18 08:07:33;;;;;;;9.23;7.40;;;28.30;57.80;;;;;;625913;230;26561;-70
2022/08/18 08:10:19;;;;;;;8.18;6.43;;;28.50;57.50;;;;;;625049;228;26619;-71
2022/08/18 08:12:46;;;;;;;8.65;7.62;;;28.50;57.50;;;;;;624724;230;27140;-70
2022/08/18 08:15:21;;;;;;;8.07;7.37;;;28.60;57.30;;;;;;625615;230;26621;-71
2022/08/18 08:17:55;;;;;;;11.60;8.23;;;28.60;57.80;;;;;;625179;230;27112;-71
2022/08/18 08:20:27;;;;;;;7.37;6.68;;;28.80;57.40;;;;;;625247;230;26513;-70
2022/08/18 08:23:16;;;;;;;9.25;6.57;;;28.70;57.30;;;;;;625318;230;26545;-70
2022/08/18 08:25:49;;;;;;;9.95;7.57;;;28.80;57.00;;;;;;617358;230;26823;-71
2022/08/18 08:28:24;;;;;;;16.55;8.10;;;28.80;56.80;;;;;;625161;230;26549;-72
2022/08/18 08:31:03;;;;;;;13.57;8.55;;;28.70;56.80;;;;;;625155;230;26733;-74
2022/08/18 08:33:30;;;;;;;13.73;8.35;;;28.90;56.40;;;;;;625094;230;26775;-73
2022/08/18 08:36:13;;;;;;;103.20;26.70;;;29.00;57.10;;;;;;625219;229;26614;-73
2022/08/18 08:38:41;;;;;;;123.90;31.02;;;29.00;57.10;;;;;;625026;230;26592;-73
2022/08/18 08:41:09;;;;;;;98.43;27.05;;;29.20;56.50;;;;;;625183;230;26828;-74
2022/08/18 08:43:37;;;;;;;64.37;20.30;;;29.30;56.50;;;;;;625063;230;26843;-72
2022/08/18 08:46:10;;;;;;;54.75;18.92;;;29.40;55.90;;;;;;625542;230;26595;-72
2022/08/18 08:48:39;;;;;;;59.92;19.00;;;29.60;56.00;;;;;;625189;230;26600;-72
2022/08/18 08:51:14;;;;;;;40.85;17.45;;;29.60;56.00;;;;;;625138;230;26809;-71
2022/08/18 08:53:45;;;;;;;35.00;15.23;;;29.90;55.70;;;;;;624284;230;26846;-71
2022/08/18 08:56:14;;;;;;;39.97;13.75;;;30.10;54.80;;;;;;625100;230;26606;-71
2022/08/18 08:58:45;;;;;;;34.25;14.52;;;30.00;54.70;;;;;;625424;230;26598;-71
2022/08/18 09:01:28;;;;;;;43.90;15.63;;;30.00;54.40;;;;;;625233;230;26578;-73
2022/08/18 09:03:56;;;;;;;32.95;14.90;;;29.90;54.00;;;;;;625007;230;26547;-72
2022/08/18 09:06:25;;;;;;;25.02;11.88;;;30.00;54.90;;;;;;625124;230;26774;-71
2022/08/18 09:09:13;;;;;;;17.10;9.95;;;30.00;54.40;;;;;;624773;230;26554;-71
2022/08/18 09:12:02;;;;;;;15.02;9.77;;;29.90;54.40;;;;;;618777;229;26961;-71
2022/08/18 09:14:50;;;;;;;17.98;9.13;;;29.80;55.20;;;;;;618334;229;26664;-72
2022/08/18 09:17:23;;;;;;;14.13;9.95;;;30.10;55.50;;;;;;624166;230;26535;-72
2022/08/18 09:20:07;;;;;;;16.45;10.75;;;30.00;55.00;;;;;;625588;230;26904;-71
2022/08/18 09:22:50;;;;;;;19.52;10.30;;;29.80;55.20;;;;;;625998;230;26622;-71
2022/08/18 09:25:29;;;;;;;9.57;8.57;;;29.80;55.50;;;;;;625961;230;26589;-71
2022/08/18 09:28:11;;;;;;;13.55;9.40;;;29.80;55.30;;;;;;626068;223;26549;-71
2022/08/18 09:30:44;;;;;;;11.77;8.65;;;29.80;55.40;;;;;;625658;230;26850;-71
2022/08/18 09:33:18;;;;;;;10.02;8.60;;;30.00;54.60;;;;;;625713;229;26768;-71
2022/08/18 09:35:54;;;;;;;7.60;6.57;;;30.00;54.60;;;;;;625670;230;26784;-71
2022/08/18 09:43:50;;;;;;;12.60;8.85;;;30.60;53.80;;;;;;622505;230;26583;-71
2022/08/18 09:46:17;;;;;;;12.32;8.88;;;30.70;52.70;;;;;;625344;230;26787;-72
2022/08/18 09:48:44;;;;;;;9.63;8.63;;;30.60;52.40;;;;;;623544;230;26560;-71
2022/08/18 09:51:17;;;;;;;8.45;7.12;;;30.80;53.00;;;;;;625508;230;27206;-71
2022/08/18 09:53:54;;;;;;;6.57;6.07;;;30.90;52.40;;;;;;625012;230;26617;-72
2022/08/18 09:56:58;;;;;;;7.12;6.53;;;30.70;51.70;;;;;;628365;225;26632;-71
2022/08/18 09:59:52;;;;;;;10.85;8.02;;;30.70;51.70;;;;;;632841;226;26553;-71
2022/08/18 10:02:41;;;;;;;6.25;5.75;;;30.60;51.70;;;;;;631650;226;26613;-72
2022/08/18 10:05:25;;;;;;;7.97;7.18;;;30.80;51.80;;;;;;630424;226;26603;-72
2022/08/18 10:08:08;;;;;;;8.98;7.07;;;30.80;51.80;;;;;;635357;226;26581;-72
2022/08/18 10:10:48;;;;;;;7.80;7.00;;;31.00;51.80;;;;;;634759;226;26772;-72
2022/08/18 10:13:36;;;;;;;11.02;7.50;;;31.20;51.30;;;;;;633740;227;26592;-71
2022/08/18 10:16:10;;;;;;;8.35;7.55;;;31.20;51.50;;;;;;625308;227;26559;-70
2022/08/18 10:18:59;;;;;;;9.27;8.35;;;31.20;51.50;;;;;;633984;225;26577;-70
2022/08/18 10:21:27;;;;;;;8.50;7.57;;;31.20;51.90;;;;;;634262;224;26559;-69
2022/08/18 10:23:55;;;;;;;9.50;8.10;;;31.50;51.20;;;;;;635629;225;26547;-71
2022/08/18 10:26:44;;;;;;;8.43;7.65;;;31.50;51.00;;;;;;635142;226;26534;-71
2022/08/18 10:29:11;;;;;;;9.52;7.85;;;31.50;51.00;;;;;;633741;226;26553;-71
2022/08/18 10:31:50;;;;;;;12.30;8.43;;;31.20;51.50;;;;;;631810;226;26780;-70
2022/08/18 10:34:39;;;;;;;9.82;6.80;;;31.00;51.30;;;;;;634997;227;26596;-71
2022/08/18 10:37:26;;;;;;;6.10;5.62;;;30.80;51.40;;;;;;633830;226;26801;-71
2022/08/18 10:40:12;;;;;;;7.80;7.07;;;30.90;51.10;;;;;;626412;226;26538;-71
2022/08/18 10:42:43;;;;;;;11.12;8.07;;;30.90;51.20;;;;;;633497;227;26814;-71
2022/08/18 10:45:13;;;;;;;7.12;6.45;;;31.10;50.80;;;;;;634481;227;26535;-71
2022/08/18 10:47:42;;;;;;;11.05;8.23;;;31.60;50.70;;;;;;634171;227;26522;-71
2022/08/18 10:50:09;;;;;;;10.32;8.10;;;32.00;50.90;;;;;;634325;227;26548;-71
2022/08/18 10:52:48;;;;;;;7.45;6.75;;;32.20;49.50;;;;;;633453;227;26763;-71
2022/08/18 10:55:24;;;;;;;10.88;8.07;;;32.20;49.50;;;;;;633798;227;26798;-70
2022/08/18 10:58:02;;;;;;;8.75;7.97;;;32.20;49.80;;;;;;633538;227;26546;-70
2022/08/18 11:00:54;;;;;;;9.25;8.27;;;32.20;50.20;;;;;;633339;227;26600;-70
2022/08/18 11:03:26;;;;;;;8.77;7.87;;;32.20;49.80;;;;;;630805;226;26839;-71
2022/08/18 11:06:00;;;;;;;11.27;7.93;;;31.90;48.70;;;;;;632242;227;26565;-70
2022/08/18 11:08:27;;;;;;;7.78;7.15;;;32.00;48.80;;;;;;633943;227;26583;-70
2022/08/18 11:10:55;;;;;;;8.80;6.37;;;31.80;48.40;;;;;;633985;225;26542;-70
2022/08/18 11:13:48;;;;;;;7.50;6.80;;;31.90;48.50;;;;;;634016;226;26606;-71
2022/08/18 11:16:31;;;;;;;7.50;6.85;;;31.90;49.10;;;;;;633468;227;26831;-70
2022/08/18 11:19:05;;;;;;;8.75;7.50;;;32.20;48.10;;;;;;633642;227;26619;-70
2022/08/18 11:21:38;;;;;;;8.68;7.82;;;32.10;48.10;;;;;;633797;227;27249;-70
2022/08/18 11:24:08;;;;;;;7.50;6.80;;;32.30;47.50;;;;;;633951;227;26602;-70
2022/08/18 11:26:38;;;;;;;8.73;7.72;;;32.20;47.40;;;;;;634047;227;26604;-70
2022/08/18 11:29:16;;;;;;;6.10;5.53;;;32.40;47.10;;;;;;633970;227;26813;-70
2022/08/18 11:31:45;;;;;;;10.73;6.65;;;32.40;46.80;;;;;;634060;226;26589;-70
2022/08/18 11:34:14;;;;;;;8.27;7.12;;;32.40;46.50;;;;;;635336;224;26621;-71
2022/08/18 11:36:42;;;;;;;8.25;7.45;;;32.40;46.60;;;;;;635366;226;26568;-70
2022/08/18 11:39:10;;;;;;;8.90;8.00;;;32.50;47.20;;;;;;635057;226;26529;-70
2022/08/18 11:41:40;;;;;;;8.98;7.28;;;32.60;45.90;;;;;;634930;226;26544;-71
2022/08/18 11:44:06;;;;;;;8.00;7.20;;;32.60;45.90;;;;;;634883;226;26643;-71
2022/08/18 11:46:37;;;;;;;7.80;7.10;;;32.70;45.60;;;;;;633942;227;26558;-70
2022/08/18 11:49:02;;;;;;;7.37;6.68;;;32.90;45.40;;;;;;634451;227;26587;-71
2022/08/18 11:51:30;;;;;;;9.88;6.97;;;33.00;44.50;;;;;;633670;227;26575;-71
2022/08/18 11:53:58;;;;;;;6.82;6.22;;;33.00;43.90;;;;;;634174;227;26555;-71
2022/08/18 11:56:30;;;;;;;7.07;6.37;;;32.90;43.60;;;;;;634229;227;26552;-71
2022/08/18 11:58:57;;;;;;;9.10;6.50;;;32.90;43.60;;;;;;634228;226;26547;-71
2022/08/18 12:01:48;;;;;;;6.85;6.07;;;32.90;43.30;;;;;;627255;226;26538;-71
2022/08/18 12:04:16;;;;;;;8.95;5.65;;;32.80;43.20;;;;;;633354;227;26591;-71
2022/08/18 12:07:09;;;;;;;7.90;6.18;;;32.90;42.90;;;;;;633432;227;26574;-71
2022/08/18 12:09:42;;;;;;;8.38;5.68;;;33.00;42.60;;;;;;634601;227;26519;-71
2022/08/18 12:12:16;;;;;;;7.85;5.53;;;33.20;42.10;;;;;;634041;227;26571;-72
2022/08/18 12:14:50;;;;;;;5.82;5.37;;;33.40;41.80;;;;;;633888;227;26594;-71
2022/08/18 12:17:17;;;;;;;5.87;5.40;;;33.40;41.80;;;;;;633876;227;26843;-71
2022/08/18 12:19:45;;;;;;;6.85;5.80;;;34.00;41.80;;;;;;624596;226;26602;-70
2022/08/18 12:22:15;;;;;;;8.05;6.32;;;34.10;41.60;;;;;;624545;230;26577;-73
2022/08/18 12:24:42;;;;;;;6.68;5.87;;;34.10;41.50;;;;;;601192;239;26886;-71
2022/08/18 12:27:09;;;;;;;7.55;6.03;;;34.40;41.30;;;;;;628016;229;26552;-71
2022/08/18 12:29:36;;;;;;;7.40;6.15;;;34.80;40.90;;;;;;624446;229;26593;-72
2022/08/18 12:32:04;;;;;;;8.18;6.35;;;35.70;39.80;;;;;;624517;230;26585;-71
2022/08/18 12:34:32;;;;;;;10.85;6.95;;;35.60;39.70;;;;;;601239;237;26879;-72
2022/08/18 12:37:00;;;;;;;7.47;5.87;;;35.60;39.10;;;;;;627978;229;26528;-73
2022/08/18 12:39:28;;;;;;;7.85;5.40;;;35.50;39.00;;;;;;624519;229;26606;-72
2022/08/18 12:41:56;;;;;;;6.80;5.93;;;35.50;39.40;;;;;;624578;230;26579;-68
2022/08/18 12:44:23;;;;;;;7.57;5.60;;;35.50;39.40;;;;;;601181;237;26609;-70
2022/08/18 12:46:50;;;;;;;7.03;5.87;;;35.70;39.40;;;;;;629697;228;26604;-71
2022/08/18 12:49:17;;;;;;;7.85;6.30;;;36.20;38.90;;;;;;625610;230;26777;-71
2022/08/18 12:51:44;;;;;;;10.27;6.97;;;36.60;39.10;;;;;;625324;230;26569;-72
2022/08/18 12:54:12;;;;;;;7.53;5.97;;;37.10;38.60;;;;;;603501;234;26839;-73
2022/08/18 12:56:40;;;;;;;7.45;5.72;;;37.00;38.50;;;;;;613348;234;26806;-72
2022/08/18 12:59:07;;;;;;;7.90;6.43;;;37.20;38.80;;;;;;613408;233;26567;-71
2022/08/18 13:01:34;;;;;;;7.22;6.45;;;37.50;38.50;;;;;;615310;234;26788;-72
2022/08/18 13:04:02;;;;;;;6.95;6.18;;;37.70;38.40;;;;;;613345;233;26582;-71
2022/08/18 13:06:29;;;;;;;7.40;6.80;;;38.50;37.70;;;;;;631873;228;26593;-70
2022/08/18 13:08:57;;;;;;;7.25;6.55;;;38.60;37.20;;;;;;631926;227;26596;-70
2022/08/18 13:11:25;;;;;;;6.85;6.25;;;37.90;37.70;;;;;;631813;226;26572;-70
2022/08/18 13:13:53;;;;;;;7.65;6.55;;;37.90;38.30;;;;;;631863;228;26624;-67
2022/08/18 13:16:20;;;;;;;7.68;6.87;;;37.80;38.30;;;;;;631740;228;26584;-72
2022/08/18 13:18:47;;;;;;;7.62;6.80;;;37.20;38.50;;;;;;631913;226;26629;-70
2022/08/18 13:21:15;;;;;;;8.15;7.20;;;37.10;39.10;;;;;;631729;228;26778;-70
2022/08/18 13:23:43;;;;;;;8.50;7.50;;;37.20;38.90;;;;;;631568;227;26556;-71
2022/08/18 13:26:09;;;;;;;8.40;7.25;;;37.30;38.40;;;;;;631533;228;26905;-73